Time;durP1;ratioP1;P1;durP2;ratioP2;P2;SDS_P1;SDS_P2;PMS_P1;PMS_P2;Temp;Humidity;BMP_temperature;BMP_pressure;BME280_temperature;BME280_humidity;BME280_pressure;Samples;Min_cycle;Max_cycle;Signal;HPM_P1;HPM_P2
2022/05/23 00:02:16;;;;;;;5.28;1.90;;;16.60;99.90;;;;;;5078655;28;20047;-65
2022/05/23 00:04:42;;;;;;;5.00;1.92;;;16.60;99.90;;;;;;5077143;28;20047;-64
2022/05/23 00:07:30;;;;;;;3.38;1.75;;;16.50;99.90;;;;;;5073099;28;20040;-64
2022/05/23 00:09:56;;;;;;;5.90;2.22;;;16.50;99.90;;;;;;5072982;28;20048;-65
2022/05/23 00:12:22;;;;;;;4.95;2.00;;;16.40;99.90;;;;;;5073870;28;20802;-66
2022/05/23 00:14:50;;;;;;;5.93;2.10;;;16.40;99.90;;;;;;5075271;28;20044;-65
2022/05/23 00:17:16;;;;;;;5.75;2.08;;;16.40;99.90;;;;;;5072749;28;20286;-65
2022/05/23 00:19:42;;;;;;;6.88;2.17;;;16.30;99.90;;;;;;5071988;28;20048;-64
2022/05/23 00:22:08;;;;;;;5.65;2.38;;;16.30;99.90;;;;;;5072586;28;20048;-66
2022/05/23 00:24:34;;;;;;;5.85;1.95;;;16.30;99.90;;;;;;5071731;28;20033;-67
2022/05/23 00:26:59;;;;;;;5.85;2.00;;;16.30;99.90;;;;;;5072701;28;20693;-64
2022/05/23 00:29:25;;;;;;;7.05;2.22;;;16.30;99.90;;;;;;5072861;28;20048;-65
2022/05/23 00:37:22;;;;;;;5.65;1.92;;;16.30;99.90;;;;;;5073968;28;21872;-65
2022/05/23 00:39:47;;;;;;;7.38;2.15;;;16.30;99.90;;;;;;5074088;28;20051;-65
2022/05/23 00:45:01;;;;;;;5.65;2.15;;;16.30;99.90;;;;;;5076436;28;20440;-66
2022/05/23 00:47:28;;;;;;;5.10;1.83;;;16.30;99.90;;;;;;5073652;28;20068;-65
2022/05/23 00:49:54;;;;;;;4.63;2.00;;;16.30;99.90;;;;;;5073101;28;20504;-66
2022/05/23 00:52:43;;;;;;;6.47;2.22;;;16.30;99.90;;;;;;5072806;28;20047;-65
2022/05/23 00:55:15;;;;;;;7.00;2.13;;;16.20;99.90;;;;;;5071638;28;20058;-65
2022/05/23 00:57:44;;;;;;;6.05;2.00;;;16.20;99.90;;;;;;5069853;28;20473;-65
2022/05/23 01:00:10;;;;;;;5.15;2.20;;;16.20;99.90;;;;;;5069406;28;20052;-66
2022/05/23 01:02:37;;;;;;;4.63;2.13;;;16.20;99.90;;;;;;5072139;28;20119;-65
2022/05/23 01:05:08;;;;;;;6.68;2.13;;;16.20;99.90;;;;;;5071996;28;20048;-66
2022/05/23 01:07:34;;;;;;;5.53;2.20;;;16.20;99.90;;;;;;5072440;28;20055;-65
2022/05/23 01:10:00;;;;;;;5.63;2.10;;;16.20;99.90;;;;;;5071834;28;20044;-64
2022/05/23 01:12:27;;;;;;;5.13;2.33;;;16.10;99.90;;;;;;5071253;28;20524;-64
2022/05/23 01:14:55;;;;;;;5.57;2.10;;;16.10;99.90;;;;;;5074648;28;20127;-64
2022/05/23 01:17:23;;;;;;;4.75;2.08;;;16.10;99.90;;;;;;5072093;28;20867;-64
2022/05/23 01:19:49;;;;;;;6.22;2.05;;;16.10;99.90;;;;;;5070731;28;20085;-64
2022/05/23 01:22:51;;;;;;;9.00;2.00;;;16.10;99.90;;;;;;5070497;28;20066;-64
2022/05/23 01:25:39;;;;;;;6.03;2.00;;;16.10;99.90;;;;;;5068137;28;20123;-64
2022/05/23 01:28:05;;;;;;;6.22;2.00;;;16.10;99.90;;;;;;5074348;28;20821;-64
2022/05/23 01:30:34;;;;;;;6.40;2.30;;;16.10;99.90;;;;;;5078107;28;20047;-64
2022/05/23 01:33:00;;;;;;;5.22;2.10;;;16.00;99.90;;;;;;5075695;28;20072;-64
2022/05/23 01:35:26;;;;;;;6.20;1.90;;;16.10;99.90;;;;;;5076617;28;20039;-64
2022/05/23 01:37:51;;;;;;;5.15;2.03;;;16.10;99.90;;;;;;5075598;28;20055;-66
2022/05/23 01:40:18;;;;;;;4.05;1.90;;;16.00;99.90;;;;;;5076341;28;20123;-67
2022/05/23 01:42:44;;;;;;;6.80;2.50;;;16.00;99.90;;;;;;5077945;28;20035;-65
2022/05/23 01:45:12;;;;;;;9.25;2.42;;;16.00;99.90;;;;;;5075903;28;20374;-67
2022/05/23 01:47:38;;;;;;;5.85;2.60;;;16.00;99.90;;;;;;5077744;28;20179;-66
2022/05/23 01:50:04;;;;;;;8.38;2.42;;;15.90;99.90;;;;;;5076210;28;20142;-66
2022/05/23 01:52:29;;;;;;;8.18;2.47;;;16.00;99.90;;;;;;5077853;28;20063;-64
2022/05/23 01:54:55;;;;;;;5.32;2.30;;;15.90;99.90;;;;;;5068502;28;20482;-64
2022/05/23 01:57:20;;;;;;;6.20;2.30;;;15.90;99.90;;;;;;5070043;28;20056;-65
2022/05/23 02:02:30;;;;;;;6.73;2.40;;;15.80;99.90;;;;;;5070276;28;20138;-66
2022/05/23 02:04:56;;;;;;;7.30;2.55;;;15.80;99.90;;;;;;5076576;28;20240;-66
2022/05/23 02:07:22;;;;;;;4.78;2.45;;;15.90;99.90;;;;;;5073466;28;20121;-65
2022/05/23 02:09:47;;;;;;;6.90;2.53;;;15.80;99.90;;;;;;5071714;28;20075;-64
2022/05/23 02:12:17;;;;;;;6.32;2.50;;;15.80;99.90;;;;;;5077465;28;20459;-66
2022/05/23 02:14:44;;;;;;;7.45;2.53;;;15.70;99.90;;;;;;5075092;28;20097;-65
2022/05/23 02:17:12;;;;;;;7.15;2.70;;;15.70;99.90;;;;;;5068474;28;20048;-67
2022/05/23 02:19:38;;;;;;;7.95;2.80;;;15.80;99.90;;;;;;5067341;28;20044;-67
2022/05/23 02:22:04;;;;;;;5.72;2.70;;;15.70;99.90;;;;;;5067465;28;20133;-66
2022/05/23 02:24:29;;;;;;;6.53;2.55;;;15.70;99.90;;;;;;5069999;28;20179;-66
2022/05/23 02:26:55;;;;;;;6.28;2.65;;;15.70;99.90;;;;;;5070833;28;20075;-65
2022/05/23 02:29:22;;;;;;;7.75;2.92;;;15.70;99.90;;;;;;5074065;28;20044;-66
2022/05/23 02:31:50;;;;;;;6.80;2.70;;;15.60;99.90;;;;;;5071341;28;20044;-67
2022/05/23 02:34:18;;;;;;;6.30;2.60;;;15.60;99.90;;;;;;5073291;28;20400;-66
2022/05/23 02:36:45;;;;;;;9.10;2.83;;;15.70;99.90;;;;;;5075307;28;20203;-65
2022/05/23 02:39:10;;;;;;;5.80;2.63;;;15.60;99.90;;;;;;5077004;28;20028;-66
2022/05/23 02:41:37;;;;;;;6.70;2.35;;;15.60;99.90;;;;;;5072730;28;20047;-66
2022/05/23 02:44:02;;;;;;;6.63;2.47;;;15.60;99.90;;;;;;5073022;28;20999;-68
2022/05/23 02:46:28;;;;;;;8.15;2.60;;;15.60;99.90;;;;;;5072182;28;20048;-67
2022/05/23 02:48:55;;;;;;;6.45;2.50;;;15.60;99.90;;;;;;5074361;28;20075;-66
2022/05/23 02:51:20;;;;;;;6.50;2.72;;;15.60;99.90;;;;;;5077004;28;20044;-65
2022/05/23 02:53:46;;;;;;;5.50;2.72;;;15.60;99.90;;;;;;5073733;28;20044;-65
2022/05/23 02:56:12;;;;;;;4.82;2.35;;;15.60;99.90;;;;;;5079601;28;20108;-65
2022/05/23 02:58:37;;;;;;;8.20;2.60;;;15.60;99.90;;;;;;5079217;28;20138;-67
2022/05/23 03:01:03;;;;;;;6.38;2.80;;;15.60;99.90;;;;;;5075351;28;20117;-67
2022/05/23 03:03:29;;;;;;;6.53;2.83;;;15.60;99.90;;;;;;5075846;28;20078;-66
2022/05/23 03:05:55;;;;;;;6.50;2.92;;;15.60;99.90;;;;;;5079331;28;20064;-65
2022/05/23 03:08:23;;;;;;;5.85;2.30;;;15.50;99.90;;;;;;5078034;28;20066;-64
2022/05/23 03:10:51;;;;;;;4.72;2.40;;;15.50;99.90;;;;;;5079004;28;20047;-68
2022/05/23 03:13:17;;;;;;;6.47;2.40;;;15.50;99.90;;;;;;5078729;28;20555;-65
2022/05/23 03:15:43;;;;;;;5.20;2.50;;;15.50;99.90;;;;;;5078949;28;20032;-65
2022/05/23 03:18:08;;;;;;;6.60;2.42;;;15.50;99.90;;;;;;5075749;28;20126;-66
2022/05/23 03:20:35;;;;;;;5.63;2.22;;;15.50;99.90;;;;;;5077102;28;20055;-66
2022/05/23 03:28:33;;;;;;;6.97;2.55;;;15.40;99.90;;;;;;5076716;28;20075;-66
2022/05/23 03:30:59;;;;;;;5.60;2.40;;;15.40;99.90;;;;;;5077519;28;20055;-65
2022/05/23 03:33:24;;;;;;;4.28;2.08;;;15.40;99.90;;;;;;5076097;28;20048;-65
2022/05/23 03:35:50;;;;;;;4.97;2.42;;;15.40;99.90;;;;;;5078702;28;20053;-66
2022/05/23 03:38:16;;;;;;;6.75;2.75;;;15.40;99.90;;;;;;5073986;28;20045;-67
2022/05/23 03:40:42;;;;;;;6.60;2.80;;;15.40;99.90;;;;;;5073484;28;20808;-64
2022/05/23 03:43:08;;;;;;;5.38;2.30;;;15.30;99.90;;;;;;5077139;28;20586;-65
2022/05/23 03:45:36;;;;;;;7.32;2.47;;;15.30;99.90;;;;;;5071180;28;20052;-67
2022/05/23 03:48:03;;;;;;;5.20;2.47;;;15.30;99.90;;;;;;5069906;28;20051;-66
2022/05/23 03:50:30;;;;;;;5.22;2.28;;;15.30;99.90;;;;;;5075615;28;20043;-65
2022/05/23 03:52:55;;;;;;;5.18;2.22;;;15.20;99.90;;;;;;5077851;28;20049;-65
2022/05/23 03:55:22;;;;;;;9.32;2.35;;;15.20;99.90;;;;;;5079680;28;20823;-65
2022/05/23 03:57:48;;;;;;;5.72;2.53;;;15.20;99.90;;;;;;5080288;28;20044;-65
2022/05/23 04:00:14;;;;;;;5.10;2.42;;;15.20;99.90;;;;;;5079936;28;20048;-65
2022/05/23 04:02:41;;;;;;;6.15;2.30;;;15.20;99.90;;;;;;5075161;28;20394;-64
2022/05/23 04:05:10;;;;;;;5.57;2.30;;;15.20;99.90;;;;;;5079954;28;20044;-66
2022/05/23 04:07:38;;;;;;;7.82;2.58;;;15.20;99.90;;;;;;5075693;28;20050;-66
2022/05/23 04:10:09;;;;;;;5.95;2.60;;;15.20;99.90;;;;;;5069489;28;20036;-65
2022/05/23 04:12:36;;;;;;;7.22;2.30;;;15.20;99.90;;;;;;5072897;28;20051;-65
2022/05/23 04:15:03;;;;;;;4.05;2.55;;;15.20;99.90;;;;;;5070661;28;20139;-67
2022/05/23 04:17:29;;;;;;;5.25;2.70;;;15.20;99.90;;;;;;5069210;28;20043;-65
2022/05/23 04:19:54;;;;;;;7.07;2.78;;;15.20;99.90;;;;;;5075989;28;20081;-66
2022/05/23 04:22:20;;;;;;;4.75;2.60;;;15.20;99.90;;;;;;5073668;28;20549;-67
2022/05/23 04:24:46;;;;;;;5.47;2.90;;;15.20;99.90;;;;;;5073106;28;20040;-65
2022/05/23 04:27:11;;;;;;;5.95;2.65;;;15.30;99.90;;;;;;5075810;28;20163;-64
2022/05/23 04:29:37;;;;;;;6.18;2.80;;;15.30;99.90;;;;;;5071547;28;20051;-67
2022/05/23 04:35:12;;;;;;;6.57;2.75;;;15.40;99.90;;;;;;5076946;28;20040;-68
2022/05/23 04:37:32;;;;;;;4.70;2.47;;;15.50;99.90;;;;;;5077082;28;20048;-66
2022/05/23 04:39:58;;;;;;;6.50;2.50;;;15.60;99.90;;;;;;5087032;28;20044;-65
2022/05/23 04:42:23;;;;;;;7.53;2.92;;;15.70;99.90;;;;;;5077032;28;20455;-67
2022/05/23 04:44:51;;;;;;;6.65;2.72;;;15.80;99.90;;;;;;5070613;28;20117;-66
2022/05/23 04:50:03;;;;;;;6.35;2.72;;;15.90;99.90;;;;;;5071382;28;20052;-67
2022/05/23 04:52:29;;;;;;;5.95;2.58;;;15.90;99.90;;;;;;5069747;28;20048;-65
2022/05/23 04:54:54;;;;;;;6.93;2.60;;;16.00;99.90;;;;;;5074886;28;20052;-65
2022/05/23 04:57:20;;;;;;;7.40;2.85;;;16.00;99.90;;;;;;5073978;28;20206;-65
2022/05/23 04:59:45;;;;;;;6.10;2.72;;;16.00;99.90;;;;;;5070776;28;20062;-65
2022/05/23 05:02:11;;;;;;;5.78;2.78;;;16.00;99.90;;;;;;5070526;28;20048;-67
2022/05/23 05:04:36;;;;;;;6.50;2.75;;;16.00;99.90;;;;;;5070880;28;20041;-67
2022/05/23 05:07:02;;;;;;;7.68;2.95;;;16.10;99.90;;;;;;5066946;28;20047;-67
2022/05/23 05:09:28;;;;;;;5.95;2.92;;;16.10;99.90;;;;;;5068534;28;20048;-67
2022/05/23 05:11:53;;;;;;;7.18;2.83;;;16.20;99.90;;;;;;5073201;28;20178;-66
2022/05/23 05:14:19;;;;;;;6.22;2.83;;;16.30;99.90;;;;;;5070205;28;21485;-66
2022/05/23 05:16:45;;;;;;;7.03;3.05;;;16.40;99.90;;;;;;5073837;28;20112;-68
2022/05/23 05:19:10;;;;;;;6.53;3.20;;;16.50;99.90;;;;;;5074005;28;20139;-66
2022/05/23 05:21:36;;;;;;;5.80;2.85;;;16.60;99.90;;;;;;5073246;28;20088;-66
2022/05/23 05:24:02;;;;;;;8.15;3.30;;;16.70;99.90;;;;;;5072896;28;20130;-67
2022/05/23 05:26:29;;;;;;;4.75;2.88;;;16.80;99.90;;;;;;5075675;28;20074;-65
2022/05/23 05:28:54;;;;;;;6.05;2.33;;;17.00;99.90;;;;;;5080515;28;20044;-64
2022/05/23 05:31:39;;;;;;;7.05;3.10;;;17.10;99.90;;;;;;5077120;28;20040;-64
2022/05/23 05:34:16;;;;;;;6.78;3.08;;;17.10;99.90;;;;;;5077123;28;20131;-65
2022/05/23 05:36:46;;;;;;;7.47;3.17;;;17.20;99.90;;;;;;5078309;28;20047;-68
2022/05/23 05:39:14;;;;;;;6.18;3.22;;;17.20;99.90;;;;;;5079256;28;20047;-67
2022/05/23 05:42:18;;;;;;;5.88;2.90;;;17.30;99.90;;;;;;5080190;28;20279;-66
2022/05/23 05:44:49;;;;;;;6.45;2.90;;;17.30;99.90;;;;;;5084755;28;20047;-66
2022/05/23 05:47:19;;;;;;;5.20;2.80;;;17.40;99.90;;;;;;5085827;28;20044;-65
2022/05/23 05:49:48;;;;;;;6.72;3.28;;;17.30;99.90;;;;;;5087714;28;20493;-66
2022/05/23 05:52:17;;;;;;;5.40;3.05;;;17.30;99.90;;;;;;5083087;28;20406;-66
2022/05/23 05:54:43;;;;;;;7.13;3.47;;;17.30;99.90;;;;;;5085493;28;20513;-64
2022/05/23 05:57:12;;;;;;;6.88;3.42;;;17.30;99.90;;;;;;5078513;28;20044;-64
2022/05/23 05:59:38;;;;;;;5.68;3.28;;;17.30;99.90;;;;;;5079667;28;20055;-66
2022/05/23 06:02:07;;;;;;;6.25;3.28;;;17.30;99.90;;;;;;5082078;28;20044;-65
2022/05/23 06:04:35;;;;;;;7.18;3.50;;;17.50;99.90;;;;;;5085761;28;20037;-65
2022/05/23 06:12:31;;;;;;;6.80;3.63;;;17.90;99.90;;;;;;5086870;28;20071;-65
2022/05/23 06:14:57;;;;;;;8.35;3.70;;;18.00;99.90;;;;;;5088165;28;20068;-66
2022/05/23 06:17:23;;;;;;;5.97;3.30;;;18.00;99.90;;;;;;5071904;28;20490;-65
2022/05/23 06:19:49;;;;;;;7.35;3.88;;;18.10;99.90;;;;;;5069953;28;20045;-66
2022/05/23 06:22:16;;;;;;;5.88;3.22;;;18.30;99.90;;;;;;5082024;28;20036;-65
2022/05/23 06:24:42;;;;;;;7.22;3.78;;;18.40;99.90;;;;;;5088462;28;20061;-66
2022/05/23 06:27:08;;;;;;;6.28;3.45;;;18.40;99.90;;;;;;5089355;28;20119;-65
2022/05/23 06:29:35;;;;;;;6.07;3.50;;;18.50;99.90;;;;;;5084332;28;20093;-67
2022/05/23 06:32:02;;;;;;;5.40;3.22;;;18.60;99.90;;;;;;5081024;28;20070;-65
2022/05/23 06:34:28;;;;;;;6.90;3.60;;;18.70;99.90;;;;;;5069850;28;20048;-65
2022/05/23 06:36:54;;;;;;;8.82;3.88;;;18.80;99.90;;;;;;5081000;28;20040;-65
2022/05/23 06:39:20;;;;;;;8.07;3.72;;;18.90;99.90;;;;;;5087553;28;20478;-66
2022/05/23 06:41:45;;;;;;;8.00;4.18;;;19.00;99.90;;;;;;5088157;28;20067;-65
2022/05/23 06:44:11;;;;;;;8.23;4.10;;;19.10;99.90;;;;;;5075973;28;20356;-66
2022/05/23 06:46:36;;;;;;;6.93;3.33;;;19.20;99.90;;;;;;5070369;28;20080;-65
2022/05/23 06:49:02;;;;;;;6.90;3.75;;;19.30;99.90;;;;;;5072201;28;20041;-65
2022/05/23 06:51:28;;;;;;;8.00;4.00;;;19.40;99.90;;;;;;5066134;28;20044;-66
2022/05/23 06:53:56;;;;;;;7.18;3.70;;;19.50;99.90;;;;;;5073959;28;20055;-67
2022/05/23 06:56:22;;;;;;;6.43;3.53;;;19.60;99.90;;;;;;5065498;28;20102;-66
2022/05/23 06:58:48;;;;;;;6.15;3.60;;;19.70;99.90;;;;;;5066996;28;20044;-65
2022/05/23 07:01:15;;;;;;;5.97;3.75;;;19.70;99.90;;;;;;5076138;28;20127;-66
2022/05/23 07:03:41;;;;;;;6.20;3.78;;;19.90;99.90;;;;;;5086455;28;20180;-65
2022/05/23 07:14:21;;;;;;;8.90;4.20;;;20.50;99.90;;;;;;5080241;28;20060;-65
2022/05/23 07:16:46;;;;;;;11.10;4.00;;;20.50;99.80;;;;;;5072334;28;20180;-67
2022/05/23 07:19:12;;;;;;;8.25;4.18;;;20.60;99.50;;;;;;5074647;28;20547;-65
2022/05/23 07:21:38;;;;;;;7.53;3.80;;;20.60;99.60;;;;;;5090016;28;20036;-66
2022/05/23 07:24:04;;;;;;;6.93;3.83;;;20.70;99.70;;;;;;5080189;28;20068;-67
2022/05/23 07:26:31;;;;;;;9.00;4.00;;;20.80;99.60;;;;;;5077400;28;20054;-65
2022/05/23 07:28:57;;;;;;;7.57;3.55;;;20.90;99.50;;;;;;5084430;28;20047;-65
2022/05/23 07:31:23;;;;;;;8.32;4.03;;;21.00;99.30;;;;;;5090423;28;20587;-65
2022/05/23 07:33:49;;;;;;;8.82;3.85;;;20.90;98.70;;;;;;5072450;28;20059;-67
2022/05/23 07:36:16;;;;;;;9.23;4.28;;;20.90;98.70;;;;;;5088419;28;20114;-65
2022/05/23 07:38:42;;;;;;;7.93;4.05;;;21.00;98.80;;;;;;5088759;28;20048;-65
2022/05/23 07:41:09;;;;;;;7.35;3.72;;;21.10;98.60;;;;;;5088978;28;20130;-65
2022/05/23 07:43:36;;;;;;;7.00;3.70;;;21.10;98.40;;;;;;5086655;28;20049;-65
2022/05/23 07:46:09;;;;;;;5.80;3.45;;;21.30;98.50;;;;;;5084899;28;20084;-67
2022/05/23 07:48:40;;;;;;;8.85;4.05;;;21.50;98.10;;;;;;5072408;28;20108;-65
2022/05/23 07:51:06;;;;;;;6.45;3.50;;;21.60;97.40;;;;;;5068059;28;20154;-65
2022/05/23 08:01:45;;;;;;;6.97;3.60;;;21.80;96.50;;;;;;5076850;28;20127;-65
2022/05/23 08:04:11;;;;;;;7.78;3.78;;;22.00;96.90;;;;;;5088900;28;20048;-65
2022/05/23 08:06:36;;;;;;;6.55;3.75;;;22.10;96.90;;;;;;5085435;28;20047;-65
2022/05/23 08:09:02;;;;;;;8.93;4.30;;;22.10;96.80;;;;;;5083918;28;20105;-65
2022/05/23 08:11:28;;;;;;;8.07;3.53;;;22.10;96.60;;;;;;5086727;28;20119;-66
2022/05/23 08:13:56;;;;;;;7.97;3.30;;;22.20;96.70;;;;;;5080197;28;20075;-66
2022/05/23 08:16:21;;;;;;;6.50;3.50;;;22.30;96.40;;;;;;5076225;28;20414;-68
2022/05/23 08:18:47;;;;;;;6.68;3.42;;;22.40;96.10;;;;;;5088626;28;20043;-66
2022/05/23 08:21:14;;;;;;;7.32;3.58;;;22.60;95.70;;;;;;5086393;28;20075;-65
2022/05/23 08:23:39;;;;;;;5.90;3.60;;;22.70;95.90;;;;;;5068897;28;20498;-65
2022/05/23 08:26:06;;;;;;;8.55;3.97;;;22.80;96.00;;;;;;5083540;28;20075;-65
2022/05/23 08:28:31;;;;;;;8.80;3.80;;;22.90;95.60;;;;;;5072957;28;20043;-68
2022/05/23 08:30:57;;;;;;;6.60;3.78;;;22.90;95.20;;;;;;5088569;28;20565;-65
2022/05/23 08:33:23;;;;;;;5.95;3.85;;;22.90;95.00;;;;;;5089597;28;20184;-65
2022/05/23 08:35:48;;;;;;;7.70;4.32;;;22.80;95.30;;;;;;5084690;28;20128;-67
2022/05/23 08:38:14;;;;;;;6.30;4.00;;;22.70;94.70;;;;;;5080786;28;20216;-66
2022/05/23 08:40:55;;;;;;;7.68;3.80;;;22.70;94.90;;;;;;5088632;28;20044;-66
2022/05/23 08:43:28;;;;;;;7.82;4.10;;;22.80;94.90;;;;;;5088705;28;20048;-65
2022/05/23 08:45:57;;;;;;;8.95;4.35;;;22.90;94.70;;;;;;5084364;28;20106;-65
2022/05/23 08:48:34;;;;;;;8.30;3.83;;;23.00;94.50;;;;;;5081609;28;20528;-65
2022/05/23 08:51:12;;;;;;;7.20;4.10;;;23.00;94.00;;;;;;5071274;28;20047;-65
2022/05/23 08:53:47;;;;;;;6.50;3.80;;;23.00;94.20;;;;;;5089013;28;20048;-67
2022/05/23 08:56:26;;;;;;;8.00;4.20;;;23.20;95.20;;;;;;5081177;28;20040;-65
2022/05/23 08:58:55;;;;;;;6.50;3.78;;;23.40;95.30;;;;;;5073192;28;20086;-65
2022/05/23 09:01:25;;;;;;;8.10;4.10;;;23.50;95.00;;;;;;5089548;28;20127;-66
2022/05/23 09:04:18;;;;;;;7.28;4.07;;;23.70;94.90;;;;;;5080003;28;20044;-65
2022/05/23 09:06:49;;;;;;;8.80;4.70;;;23.90;94.90;;;;;;5077389;28;20048;-65
2022/05/23 09:09:21;;;;;;;7.78;3.90;;;23.90;93.50;;;;;;5079121;28;20089;-65
2022/05/23 09:11:50;;;;;;;7.20;3.53;;;24.00;93.40;;;;;;5079480;28;20043;-66
2022/05/23 09:14:17;;;;;;;8.93;4.30;;;24.10;93.30;;;;;;5088449;28;20048;-65
2022/05/23 09:16:56;;;;;;;6.10;3.70;;;24.10;93.50;;;;;;5080430;28;20529;-65
2022/05/23 09:19:28;;;;;;;7.75;4.40;;;24.10;92.90;;;;;;5080480;28;20335;-65
2022/05/23 09:22:12;;;;;;;8.88;3.92;;;24.10;92.80;;;;;;5069537;28;20052;-66
2022/05/23 09:24:44;;;;;;;7.50;3.80;;;24.20;92.80;;;;;;5086657;28;20437;-65
2022/05/23 09:27:20;;;;;;;7.97;4.03;;;24.30;92.40;;;;;;5076975;28;20064;-67
2022/05/23 09:29:54;;;;;;;7.32;4.00;;;24.30;92.30;;;;;;5070902;28;20125;-66
2022/05/23 09:32:46;;;;;;;6.75;3.92;;;24.30;92.00;;;;;;5068000;28;20032;-65
2022/05/23 09:35:22;;;;;;;5.53;3.70;;;24.40;91.80;;;;;;5088115;28;20040;-65
2022/05/23 09:38:17;;;;;;;7.75;3.47;;;24.50;92.00;;;;;;5085926;28;20424;-65
2022/05/23 09:40:44;;;;;;;8.45;3.63;;;24.60;90.80;;;;;;5067266;28;20508;-65
2022/05/23 09:49:20;;;;;;;7.38;3.55;;;25.00;91.50;;;;;;5076621;28;20052;-65
2022/05/23 09:51:54;;;;;;;7.80;3.40;;;25.10;91.70;;;;;;5078322;28;20113;-66
2022/05/23 09:54:40;;;;;;;5.38;3.33;;;25.00;90.30;;;;;;5072826;28;20164;-65
2022/05/23 09:57:32;;;;;;;5.20;2.85;;;25.10;90.40;;;;;;5067861;28;20048;-65
2022/05/23 10:00:04;;;;;;;5.78;2.95;;;25.10;90.20;;;;;;5087504;28;20083;-65
2022/05/23 10:02:29;;;;;;;5.85;3.20;;;25.30;90.40;;;;;;5073122;28;20147;-66
2022/05/23 10:04:56;;;;;;;6.78;3.10;;;25.40;89.80;;;;;;5070267;28;21489;-65
2022/05/23 10:07:30;;;;;;;6.70;2.75;;;25.40;88.20;;;;;;5066937;28;20086;-65
2022/05/23 10:10:00;;;;;;;5.63;2.60;;;25.40;85.50;;;;;;5078581;28;20043;-64
2022/05/23 10:12:26;;;;;;;6.07;3.17;;;25.30;84.30;;;;;;5087623;28;20047;-64
2022/05/23 10:15:21;;;;;;;6.88;2.75;;;25.20;84.50;;;;;;5080675;28;20040;-66
2022/05/23 10:18:06;;;;;;;6.43;2.20;;;25.20;84.20;;;;;;5079544;28;20118;-65
2022/05/23 10:20:41;;;;;;;5.38;2.47;;;25.30;82.20;;;;;;5084857;28;20044;-65
2022/05/23 10:23:14;;;;;;;6.45;2.80;;;25.40;80.60;;;;;;5082248;28;20036;-66
2022/05/23 10:26:02;;;;;;;8.73;2.40;;;25.50;78.90;;;;;;5081009;28;20424;-65
2022/05/23 10:28:46;;;;;;;5.05;2.40;;;25.50;76.30;;;;;;5067000;28;20052;-65
2022/05/23 10:31:17;;;;;;;6.47;2.33;;;25.50;77.50;;;;;;5074527;28;20040;-65
2022/05/23 10:33:45;;;;;;;5.85;2.40;;;25.50;77.80;;;;;;5085873;28;20102;-65
2022/05/23 10:36:20;;;;;;;5.20;2.30;;;25.40;76.70;;;;;;5076947;28;20044;-65
2022/05/23 10:42:13;;;;;;;4.13;1.80;;;25.40;74.20;;;;;;5067631;28;20064;-65
2022/05/23 10:44:42;;;;;;;4.53;2.10;;;25.60;74.40;;;;;;5065214;28;20510;-64
2022/05/23 10:47:45;;;;;;;4.60;2.22;;;25.70;73.50;;;;;;5066939;28;20080;-65
2022/05/23 10:50:21;;;;;;;5.10;2.13;;;25.90;73.30;;;;;;5082875;28;20498;-66
2022/05/23 10:53:02;;;;;;;5.78;1.90;;;26.00;73.60;;;;;;5075487;28;20325;-64
2022/05/23 10:55:34;;;;;;;4.35;2.03;;;26.10;73.30;;;;;;5070762;28;20177;-65
2022/05/23 10:58:12;;;;;;;4.18;1.92;;;26.10;73.20;;;;;;5070898;28;20036;-64
2022/05/23 11:00:53;;;;;;;5.95;2.10;;;26.00;70.80;;;;;;5084087;28;20056;-66
2022/05/23 11:03:35;;;;;;;5.00;1.90;;;25.80;69.70;;;;;;5090931;28;20113;-65
2022/05/23 11:06:26;;;;;;;4.65;1.90;;;25.70;69.40;;;;;;5089996;28;20044;-65
2022/05/23 11:09:20;;;;;;;5.43;1.90;;;25.60;69.30;;;;;;5089507;28;20142;-64
2022/05/23 11:12:03;;;;;;;3.63;1.67;;;25.80;72.10;;;;;;5090350;28;20060;-66
2022/05/23 11:14:45;;;;;;;3.28;1.70;;;25.90;69.10;;;;;;5080928;28;20479;-64
2022/05/23 11:17:14;;;;;;;3.92;1.58;;;26.00;68.10;;;;;;5073885;28;20044;-65
2022/05/23 11:20:04;;;;;;;4.78;1.90;;;26.00;67.60;;;;;;5071083;28;20199;-64
2022/05/23 11:22:35;;;;;;;5.00;2.00;;;26.00;64.90;;;;;;5073040;28;20083;-65
2022/05/23 11:25:30;;;;;;;4.68;1.63;;;26.00;65.50;;;;;;5077567;28;20043;-64
2022/05/23 11:34:13;;;;;;;4.18;2.15;;;26.30;65.90;;;;;;5075138;28;20051;-64
2022/05/23 11:36:57;;;;;;;4.70;2.03;;;26.50;66.50;;;;;;5090623;28;20048;-65
2022/05/23 11:39:41;;;;;;;5.22;1.90;;;26.60;67.00;;;;;;5086594;28;20531;-65
2022/05/23 11:42:14;;;;;;;5.55;2.05;;;26.70;66.30;;;;;;5090076;28;20129;-64
2022/05/23 11:45:56;;;;;;;6.87;2.30;;;26.60;65.80;;;;;;5088219;28;20048;-65
2022/05/23 11:47:48;;;;;;;4.07;1.90;;;26.30;64.50;;;;;;5090559;28;20054;-65
2022/05/23 11:50:30;;;;;;;5.38;2.03;;;26.10;65.40;;;;;;5090228;28;20486;-66
2022/05/23 11:53:34;;;;;;;4.78;2.08;;;25.80;66.20;;;;;;5088616;28;20170;-67
2022/05/23 11:56:03;;;;;;;3.33;1.92;;;25.70;66.70;;;;;;5066115;28;20525;-65
2022/05/23 11:58:40;;;;;;;3.80;2.03;;;25.60;67.80;;;;;;5070061;28;20052;-64
2022/05/23 12:01:11;;;;;;;4.63;2.40;;;25.70;69.30;;;;;;5086122;28;20094;-65
2022/05/23 12:03:55;;;;;;;6.22;2.40;;;25.70;69.60;;;;;;5090743;28;20100;-65
2022/05/23 12:06:25;;;;;;;4.38;2.35;;;25.70;70.30;;;;;;5073098;28;20066;-66
2022/05/23 12:09:12;;;;;;;5.90;2.50;;;25.60;70.10;;;;;;5069276;28;20041;-66
2022/05/23 12:11:40;;;;;;;4.38;2.20;;;25.60;70.20;;;;;;5090419;28;20040;-65
2022/05/23 12:14:45;;;;;;;6.38;2.13;;;25.50;70.70;;;;;;5087958;28;20043;-65
2022/05/23 12:17:20;;;;;;;5.30;2.55;;;25.40;72.10;;;;;;5074809;28;20549;-65
2022/05/23 12:19:56;;;;;;;6.70;2.97;;;25.30;72.00;;;;;;5084463;28;20083;-65
2022/05/23 12:22:24;;;;;;;5.53;3.20;;;25.10;72.80;;;;;;5071591;28;20127;-65
2022/05/23 12:25:08;;;;;;;7.30;3.72;;;24.90;73.80;;;;;;5069640;28;20044;-65
2022/05/23 12:27:45;;;;;;;7.50;3.80;;;24.90;77.40;;;;;;5080157;28;20074;-65
2022/05/23 12:30:26;;;;;;;7.10;4.22;;;24.80;78.10;;;;;;5088439;28;20121;-65
2022/05/23 12:33:00;;;;;;;7.25;3.65;;;24.60;79.40;;;;;;5080099;28;20106;-65
2022/05/23 12:35:45;;;;;;;7.30;3.88;;;24.60;81.70;;;;;;5076276;28;20242;-65
2022/05/23 12:38:43;;;;;;;7.88;4.20;;;24.60;87.30;;;;;;5068895;28;20036;-64
2022/05/23 12:41:14;;;;;;;6.10;3.95;;;24.60;90.00;;;;;;5084274;28;20170;-65
2022/05/23 12:44:13;;;;;;;6.60;4.10;;;24.70;88.90;;;;;;5088333;28;20044;-64
2022/05/23 12:46:52;;;;;;;5.80;3.90;;;24.70;90.10;;;;;;5084863;28;20079;-65
2022/05/23 12:49:17;;;;;;;7.07;4.07;;;24.80;90.20;;;;;;5078983;28;20051;-64
2022/05/23 12:52:08;;;;;;;6.68;4.10;;;24.80;90.00;;;;;;5082372;28;20526;-65
2022/05/23 12:54:54;;;;;;;7.53;4.30;;;24.80;89.70;;;;;;5069852;28;20513;-64
2022/05/23 12:57:44;;;;;;;9.20;4.18;;;24.80;90.50;;;;;;5067081;28;20044;-66
2022/05/23 13:00:18;;;;;;;7.05;4.93;;;24.80;91.20;;;;;;5074941;28;20053;-65
2022/05/23 13:03:09;;;;;;;7.57;4.28;;;24.80;92.20;;;;;;5076929;28;20094;-66
2022/05/23 13:06:02;;;;;;;6.07;3.90;;;25.00;91.50;;;;;;5074671;28;20432;-66
2022/05/23 13:08:52;;;;;;;7.13;4.38;;;25.10;91.10;;;;;;5076891;28;20073;-65
2022/05/23 13:11:52;;;;;;;7.50;4.90;;;25.20;90.10;;;;;;5068798;28;20049;-65
2022/05/23 13:14:18;;;;;;;7.57;4.30;;;25.30;88.20;;;;;;5066926;28;20048;-65
2022/05/23 13:16:55;;;;;;;7.25;4.78;;;25.40;87.50;;;;;;5077955;28;20466;-65
2022/05/23 13:22:12;;;;;;;8.02;4.50;;;25.30;85.70;;;;;;5067377;28;20121;-66
2022/05/23 13:24:53;;;;;;;8.20;4.90;;;25.50;86.40;;;;;;5074030;28;20127;-67
2022/05/23 13:27:47;;;;;;;6.65;4.32;;;25.60;86.70;;;;;;5086073;28;20093;-65
2022/05/23 13:30:28;;;;;;;9.38;5.05;;;25.80;85.30;;;;;;5082112;28;20234;-66
2022/05/23 13:33:07;;;;;;;7.10;4.70;;;25.90;83.80;;;;;;5069297;28;20556;-65
2022/05/23 13:35:33;;;;;;;8.13;4.57;;;26.10;83.50;;;;;;5074278;28;20269;-67
2022/05/23 13:38:29;;;;;;;8.20;6.03;;;26.30;83.30;;;;;;5088435;28;20227;-65
2022/05/23 13:40:57;;;;;;;7.28;5.22;;;26.50;82.20;;;;;;5071968;28;20082;-65
2022/05/23 13:43:25;;;;;;;7.82;5.30;;;26.60;82.80;;;;;;5084411;28;20463;-65
2022/05/23 13:46:07;;;;;;;7.70;5.38;;;26.60;82.80;;;;;;5065368;28;20059;-65
2022/05/23 13:48:36;;;;;;;8.70;5.30;;;26.50;80.60;;;;;;5082643;28;20048;-65
2022/05/23 13:51:06;;;;;;;8.88;5.65;;;26.50;80.10;;;;;;5088414;28;20094;-68
2022/05/23 13:53:59;;;;;;;7.65;5.40;;;26.60;79.90;;;;;;5085844;28;20101;-65
2022/05/23 13:56:26;;;;;;;10.30;5.80;;;26.60;78.80;;;;;;5082192;28;20056;-65
2022/05/23 13:58:58;;;;;;;8.55;5.60;;;26.60;79.50;;;;;;5079182;28;20129;-65
2022/05/23 14:01:32;;;;;;;9.20;5.35;;;26.40;78.90;;;;;;5068304;28;20158;-64
2022/05/23 14:04:00;;;;;;;;;;;26.40;79.70;;;;;;5078588;28;20044;-65
2022/05/23 14:06:39;;;;;;;7.63;4.82;;;26.10;80.90;;;;;;5073055;28;19932;-65
2022/05/23 14:09:07;;;;;;;8.68;5.20;;;26.00;81.10;;;;;;5072689;28;20118;-66
2022/05/23 14:11:36;;;;;;;8.85;5.07;;;25.80;81.00;;;;;;5087072;28;20088;-65
2022/05/23 14:14:25;;;;;;;9.60;5.57;;;25.70;81.70;;;;;;5085130;28;20351;-65